createdAt,value
2022-10-17T00:00:24.662Z,87.69
2022-10-17T00:02:52.490Z,88.32
2022-10-17T00:05:20.224Z,88.78
2022-10-17T00:07:47.985Z,88.43
2022-10-17T00:10:15.704Z,87.69
2022-10-17T00:12:43.638Z,88.41
2022-10-17T00:15:16.351Z,87.89
2022-10-17T00:17:44.082Z,87.82
2022-10-17T00:20:13.091Z,86.54
2022-10-17T00:22:40.941Z,86.68
2022-10-17T00:25:09.529Z,86.69
2022-10-17T00:27:37.550Z,87.22
2022-10-17T00:30:06.545Z,86.66
2022-10-17T00:32:35.592Z,86.62
2022-10-17T00:35:03.688Z,87.32
2022-10-17T00:37:31.532Z,89.86
2022-10-17T00:39:59.393Z,89.98
2022-10-17T00:42:28.450Z,92.68
2022-10-17T00:45:13.892Z,93.65
2022-10-17T00:47:45.876Z,92.43
2022-10-17T00:50:15.716Z,89.83
2022-10-17T00:52:45.383Z,86.64
2022-10-17T00:55:18.009Z,87.65
2022-10-17T00:57:46.847Z,88.53
2022-10-17T01:00:15.811Z,86.52
2022-10-17T01:02:45.546Z,86.72
2022-10-17T01:05:14.158Z,86.31
2022-10-17T01:07:43.343Z,84.65
2022-10-17T01:10:13.309Z,84.30
2022-10-17T01:12:53.785Z,83.63
2022-10-17T01:15:33.749Z,83.59
2022-10-17T01:18:14.215Z,83.67
2022-10-17T01:21:13.778Z,83.94
2022-10-17T01:24:11.742Z,87.69
2022-10-17T01:26:54.202Z,90.39
2022-10-17T01:29:39.785Z,90.85
2022-10-17T01:32:17.381Z,88.77
2022-10-17T01:34:54.141Z,86.71
2022-10-17T01:37:29.434Z,86.55
2022-10-17T01:40:04.539Z,88.53
2022-10-17T01:42:37.463Z,88.48
2022-10-17T01:45:11.615Z,88.80
2022-10-17T01:47:42.716Z,92.68
2022-10-17T01:50:16.416Z,92.44
2022-10-17T01:52:47.475Z,93.32
2022-10-17T01:55:20.026Z,91.06
2022-10-17T01:57:52.050Z,90.62
2022-10-17T02:00:23.371Z,91.80
2022-10-17T02:02:57.639Z,91.45
2022-10-17T02:05:28.861Z,90.90
2022-10-17T02:07:56.594Z,92.52
2022-10-17T02:10:33.695Z,92.85
2022-10-17T02:13:06.005Z,92.69
2022-10-17T02:15:58.533Z,89.94
2022-10-17T02:18:48.112Z,88.85
2022-10-17T02:21:25.330Z,87.86
2022-10-17T02:24:01.701Z,89.09
2022-10-17T02:26:34.824Z,87.44
2022-10-17T02:29:09.530Z,86.13
2022-10-17T02:31:41.572Z,87.13
2022-10-17T02:34:16.208Z,85.58
2022-10-17T02:36:47.858Z,90.71
2022-10-17T02:39:17.403Z,89.84
2022-10-17T02:41:47.079Z,88.49
2022-10-17T02:44:15.482Z,88.82
2022-10-17T02:46:45.942Z,89.54
2022-10-17T02:49:21.999Z,88.40
2022-10-17T02:51:56.480Z,88.13
2022-10-17T02:54:34.708Z,87.77
2022-10-17T02:57:08.232Z,86.35
2022-10-17T02:59:38.249Z,85.68
2022-10-17T03:02:07.169Z,86.44
2022-10-17T03:04:36.495Z,86.06
2022-10-17T03:07:04.449Z,87.49
2022-10-17T03:09:32.095Z,88.09
2022-10-17T03:11:59.835Z,88.39
2022-10-17T03:14:27.474Z,87.73
2022-10-17T03:16:55.158Z,88.79
2022-10-17T03:19:22.829Z,89.92
2022-10-17T03:21:51.816Z,90.85
2022-10-17T03:24:19.514Z,90.69
2022-10-17T03:29:19.947Z,90.36
2022-10-17T03:31:47.705Z,90.85
2022-10-17T03:34:16.732Z,91.83
2022-10-17T03:36:44.555Z,91.04
2022-10-17T03:39:14.001Z,91.85
2022-10-17T03:41:41.727Z,91.80
2022-10-17T03:44:09.510Z,91.13
2022-10-17T03:46:37.293Z,92.11
2022-10-17T03:49:05.048Z,91.36
2022-10-17T03:51:34.499Z,90.80
2022-10-17T03:54:02.186Z,90.52
2022-10-17T03:56:31.195Z,91.68
2022-10-17T03:58:59.138Z,91.72
2022-10-17T04:01:26.932Z,92.30
2022-10-17T04:03:56.590Z,92.04
2022-10-17T04:06:24.780Z,91.53
2022-10-17T04:08:52.573Z,92.97
2022-10-17T04:11:22.063Z,93.36
2022-10-17T04:13:54.441Z,91.76
2022-10-17T04:16:22.813Z,93.29
2022-10-17T04:18:54.548Z,91.18
2022-10-17T04:21:23.473Z,92.69
2022-10-17T04:23:54.647Z,93.70
2022-10-17T04:26:22.511Z,93.27
2022-10-17T04:28:51.877Z,93.95
2022-10-17T04:31:20.059Z,94.35
2022-10-17T04:33:49.111Z,93.45
2022-10-17T04:36:18.428Z,94.63
2022-10-17T04:38:46.436Z,92.69
2022-10-17T04:41:15.658Z,93.05
2022-10-17T04:43:46.933Z,94.36
2022-10-17T04:46:19.409Z,93.18
2022-10-17T04:48:47.185Z,93.86
2022-10-17T04:51:16.604Z,96.39
2022-10-17T04:53:45.247Z,95.97
2022-10-17T04:56:15.733Z,96.19
2022-10-17T04:58:44.560Z,96.44
2022-10-17T05:01:15.137Z,95.68
2022-10-17T05:03:44.929Z,94.33
2022-10-17T05:06:14.683Z,96.03
2022-10-17T05:08:43.236Z,96.12
2022-10-17T05:11:17.819Z,96.40
2022-10-17T05:13:45.588Z,94.31
2022-10-17T05:16:13.349Z,94.05
2022-10-17T05:18:41.045Z,95.07
2022-10-17T05:21:10.469Z,94.65
2022-10-17T05:23:38.105Z,97.06
2022-10-17T05:26:06.011Z,94.39
2022-10-17T05:28:34.608Z,96.06
2022-10-17T05:31:04.349Z,97.02
2022-10-17T05:33:32.599Z,97.34
2022-10-17T05:36:01.030Z,97.08
2022-10-17T05:38:30.162Z,95.58
2022-10-17T05:40:59.099Z,97.65
2022-10-17T05:43:27.453Z,98.49
2022-10-17T05:45:55.709Z,96.85
2022-10-17T05:48:24.272Z,97.21
2022-10-17T05:50:59.111Z,98.70
2022-10-17T05:53:26.994Z,98.74
2022-10-17T05:56:01.482Z,99.10
2022-10-17T05:58:49.364Z,99.32
2022-10-17T06:01:17.826Z,100.00
2022-10-17T06:03:46.095Z,95.29
2022-10-17T06:06:15.611Z,96.73
2022-10-17T06:08:44.317Z,98.94
2022-10-17T06:11:14.387Z,100.00
2022-10-17T06:13:42.786Z,99.90
2022-10-17T06:16:10.704Z,98.99
2022-10-17T06:18:38.485Z,100.00
2022-10-17T06:21:08.320Z,99.89
2022-10-17T06:23:36.009Z,100.00
2022-10-17T06:26:06.101Z,97.86
2022-10-17T06:28:35.877Z,97.82
2022-10-17T06:31:06.374Z,97.61
2022-10-17T06:33:34.198Z,97.56
2022-10-17T06:36:02.287Z,97.96
2022-10-17T06:38:30.144Z,98.40
2022-10-17T06:41:04.960Z,95.08
2022-10-17T06:43:32.699Z,94.35
2022-10-17T06:46:01.962Z,94.47
2022-10-17T06:48:29.869Z,94.08
2022-10-17T06:51:00.173Z,93.23
2022-10-17T06:53:28.904Z,92.84
2022-10-17T06:56:01.334Z,90.28
2022-10-17T06:58:29.106Z,91.57
2022-10-17T07:01:01.785Z,91.95
2022-10-17T07:03:30.184Z,89.83
2022-10-17T07:05:58.524Z,89.23
2022-10-17T07:08:27.416Z,89.03
2022-10-17T07:10:55.709Z,90.70
2022-10-17T07:13:24.308Z,87.68
2022-10-17T07:15:52.130Z,88.01
2022-10-17T07:18:21.231Z,87.20
2022-10-17T07:20:54.448Z,85.46
2022-10-17T07:23:22.399Z,84.74
2022-10-17T07:25:50.146Z,86.53
2022-10-17T07:28:18.306Z,86.24
2022-10-17T07:30:49.310Z,89.02
2022-10-17T07:33:18.462Z,85.27
2022-10-17T07:35:47.526Z,84.49
2022-10-17T07:38:15.282Z,82.91
2022-10-17T07:40:43.037Z,79.49
2022-10-17T07:43:10.888Z,77.63
2022-10-17T07:45:38.550Z,71.42
2022-10-17T07:48:06.676Z,65.23
2022-10-17T07:50:34.439Z,57.73
2022-10-17T07:53:03.635Z,56.34
2022-10-17T07:55:31.459Z,60.66
2022-10-17T07:58:00.421Z,60.43
2022-10-17T08:00:28.208Z,63.72
2022-10-17T08:02:55.878Z,66.66
2022-10-17T08:05:23.687Z,66.68
2022-10-17T08:07:51.557Z,66.27
2022-10-17T08:10:21.391Z,62.35
2022-10-17T08:12:49.115Z,61.84
2022-10-17T08:15:16.915Z,61.14
2022-10-17T08:17:44.589Z,63.41
2022-10-17T08:20:13.095Z,65.17
2022-10-17T08:22:40.988Z,66.92
2022-10-17T08:25:09.617Z,68.11
2022-10-17T08:27:38.631Z,70.54
2022-10-17T08:30:07.290Z,72.32
2022-10-17T08:32:34.989Z,70.95
2022-10-17T08:35:02.702Z,69.36
2022-10-17T08:37:31.735Z,72.29
2022-10-17T08:39:59.904Z,73.52
2022-10-17T08:42:42.949Z,74.80
2022-10-17T08:45:21.938Z,76.00
2022-10-17T08:47:54.249Z,75.77
2022-10-17T08:50:30.934Z,73.51
2022-10-17T08:53:04.548Z,74.30
2022-10-17T08:55:38.845Z,75.60
2022-10-17T08:58:15.453Z,77.32
2022-10-17T09:00:50.279Z,75.77
2022-10-17T09:03:32.364Z,76.80
2022-10-17T09:06:12.537Z,75.73
2022-10-17T09:08:47.365Z,75.92
2022-10-17T09:11:26.335Z,76.80
2022-10-17T09:14:06.293Z,77.25
2022-10-17T09:17:00.812Z,76.90
2022-10-17T09:19:33.177Z,76.09
2022-10-17T09:22:04.215Z,75.20
2022-10-17T09:24:40.533Z,77.09
2022-10-17T09:27:21.140Z,75.60
2022-10-17T09:29:55.694Z,76.60
2022-10-17T09:32:26.955Z,77.73
2022-10-17T09:34:55.285Z,76.10
2022-10-17T09:37:30.774Z,76.07
2022-10-17T09:39:59.243Z,76.65
2022-10-17T09:42:28.635Z,77.09
2022-10-17T09:45:06.103Z,77.26
2022-10-17T09:47:41.469Z,76.90
2022-10-17T09:50:19.362Z,77.36
2022-10-17T09:52:49.381Z,76.18
2022-10-17T09:55:21.183Z,77.32
2022-10-17T09:57:55.854Z,77.79
2022-10-17T10:00:25.531Z,78.33
2022-10-17T10:03:10.375Z,78.40
2022-10-17T10:05:38.181Z,77.78
2022-10-17T10:08:13.600Z,79.29
2022-10-17T10:10:43.212Z,79.38
2022-10-17T10:13:21.198Z,79.21
2022-10-17T10:15:50.833Z,78.89
2022-10-17T10:18:35.747Z,78.25
2022-10-17T10:21:12.848Z,77.42
2022-10-17T10:23:42.057Z,77.03
2022-10-17T10:26:22.226Z,77.04
2022-10-17T10:28:57.707Z,75.57
2022-10-17T10:31:32.774Z,75.24
2022-10-17T10:34:14.890Z,74.74
2022-10-17T10:36:51.154Z,76.30
2022-10-17T10:39:30.559Z,75.33
2022-10-17T10:41:58.430Z,75.46
2022-10-17T10:44:29.484Z,76.03
2022-10-17T10:47:26.278Z,74.84
2022-10-17T10:50:18.516Z,75.41
2022-10-17T10:52:51.884Z,75.77
2022-10-17T10:55:26.424Z,75.86
2022-10-17T10:58:11.960Z,75.86
2022-10-17T11:00:40.395Z,77.34
2022-10-17T11:03:16.060Z,77.21
2022-10-17T11:05:49.250Z,77.90
2022-10-17T11:08:24.585Z,77.00
2022-10-17T11:11:18.171Z,76.72
2022-10-17T11:13:51.892Z,76.15
2022-10-17T11:16:30.561Z,78.24
2022-10-17T11:19:06.213Z,77.11
2022-10-17T11:21:44.715Z,78.71
2022-10-17T11:24:19.918Z,77.60
2022-10-17T11:26:54.607Z,75.21
2022-10-17T11:29:28.471Z,74.90
2022-10-17T11:32:00.924Z,75.59
2022-10-17T11:34:33.354Z,74.75
2022-10-17T11:37:06.637Z,74.16
2022-10-17T11:39:42.416Z,76.23
2022-10-17T11:42:13.901Z,75.73
2022-10-17T11:44:44.853Z,74.52
2022-10-17T11:47:22.550Z,76.25
2022-10-17T11:49:53.257Z,77.89
2022-10-17T11:52:55.458Z,80.56
2022-10-17T11:55:24.626Z,82.01
2022-10-17T12:01:15.176Z,87.35
2022-10-17T12:03:54.071Z,87.07
2022-10-17T12:06:37.755Z,89.27
2022-10-17T12:09:13.330Z,87.40
2022-10-17T12:11:53.930Z,86.99
2022-10-17T12:14:40.519Z,88.90
2022-10-17T12:17:34.811Z,88.96
2022-10-17T12:20:36.784Z,88.85
2022-10-17T12:23:24.157Z,88.80
2022-10-17T12:25:57.095Z,88.56
2022-10-17T12:28:31.766Z,86.47
2022-10-17T12:31:03.026Z,87.13
2022-10-17T12:33:36.889Z,86.52
2022-10-17T12:36:50.357Z,88.58
2022-10-17T12:39:54.177Z,88.18
2022-10-17T12:42:49.329Z,88.58
2022-10-17T12:45:48.109Z,88.08
2022-10-17T12:49:02.238Z,89.04
2022-10-17T12:51:38.152Z,89.02
2022-10-17T12:54:13.108Z,89.16
2022-10-17T12:56:42.871Z,88.37
2022-10-17T12:59:17.104Z,88.52
2022-10-17T13:01:47.892Z,87.19
2022-10-17T13:04:16.620Z,88.59
2022-10-17T13:06:48.085Z,90.24
2022-10-17T13:09:25.410Z,93.63
2022-10-17T13:11:54.614Z,94.86
2022-10-17T13:14:25.842Z,94.78
2022-10-17T13:16:55.975Z,94.33
2022-10-17T13:19:26.206Z,94.74
2022-10-17T13:21:56.213Z,93.12
2022-10-17T13:24:29.945Z,92.85
2022-10-17T13:26:58.577Z,91.80
2022-10-17T13:29:29.816Z,91.77
2022-10-17T13:34:29.465Z,91.75
2022-10-17T13:36:59.255Z,91.87
2022-10-17T13:39:44.740Z,94.33
2022-10-17T13:42:23.075Z,94.82
2022-10-17T13:44:52.850Z,99.87
2022-10-17T13:47:23.725Z,97.98
2022-10-17T13:49:55.178Z,97.36
2022-10-17T13:52:26.300Z,98.51
2022-10-17T13:54:54.814Z,99.15
2022-10-17T13:57:25.953Z,98.89
2022-10-17T13:59:57.609Z,97.55
2022-10-17T14:02:27.663Z,97.02
2022-10-17T14:05:19.523Z,97.88
2022-10-17T14:08:10.625Z,97.30
2022-10-17T14:10:41.905Z,99.40
2022-10-17T14:13:22.700Z,100.00
2022-10-17T14:15:55.611Z,100.00
2022-10-17T14:18:26.554Z,99.76
2022-10-17T14:21:32.177Z,98.42
2022-10-17T14:23:45.079Z,96.65
2022-10-17T14:26:16.457Z,100.00
2022-10-17T14:28:47.155Z,99.45
2022-10-17T14:31:32.480Z,98.63
2022-10-17T14:34:02.041Z,96.32
2022-10-17T14:36:36.891Z,96.25
2022-10-17T14:39:11.868Z,96.51
2022-10-17T14:41:45.490Z,97.81
2022-10-17T14:44:21.803Z,99.85
2022-10-17T14:46:59.296Z,100.00
2022-10-17T14:49:37.076Z,98.51
2022-10-17T14:52:39.858Z,98.25
2022-10-17T14:55:23.666Z,98.23
2022-10-17T14:57:51.447Z,96.83
2022-10-17T15:00:21.564Z,96.95
2022-10-17T15:02:52.286Z,96.02
2022-10-17T15:05:20.973Z,97.73
2022-10-17T15:07:48.706Z,97.88
2022-10-17T15:10:28.387Z,98.52
2022-10-17T15:12:59.281Z,97.38
2022-10-17T15:15:38.740Z,97.91
2022-10-17T15:18:08.873Z,97.60
2022-10-17T15:20:36.744Z,96.28
2022-10-17T15:23:04.831Z,97.60
2022-10-17T15:25:34.241Z,98.86
2022-10-17T15:28:02.020Z,97.92
2022-10-17T15:30:32.413Z,98.04
2022-10-17T15:33:00.635Z,97.14
2022-10-17T15:35:30.245Z,98.78
2022-10-17T15:37:58.211Z,99.20
2022-10-17T15:40:28.187Z,97.26
2022-10-17T15:42:56.230Z,95.89
2022-10-17T15:45:24.406Z,97.37
2022-10-17T15:47:54.778Z,96.70
2022-10-17T15:50:23.032Z,95.92
2022-10-17T15:52:52.369Z,95.83
2022-10-17T15:55:21.073Z,95.48
2022-10-17T15:57:49.872Z,97.21
2022-10-17T16:00:21.894Z,96.33
2022-10-17T16:02:50.679Z,99.01
2022-10-17T16:05:23.279Z,98.36
2022-10-17T16:07:53.671Z,98.79
2022-10-17T16:10:23.139Z,99.79
2022-10-17T16:12:51.175Z,98.17
2022-10-17T16:15:22.528Z,98.28
2022-10-17T16:17:50.784Z,97.33
2022-10-17T16:20:19.719Z,98.84
2022-10-17T16:22:48.384Z,97.57
2022-10-17T16:25:23.100Z,98.48
2022-10-17T16:27:53.117Z,96.79
2022-10-17T16:32:56.851Z,94.98
2022-10-17T16:35:27.209Z,96.61
2022-10-17T16:37:56.358Z,98.40
2022-10-17T16:40:25.703Z,96.36
2022-10-17T16:42:53.572Z,96.45
2022-10-17T16:45:23.072Z,96.01
2022-10-17T16:47:52.999Z,96.93
2022-10-17T16:50:20.960Z,95.90
2022-10-17T16:52:48.718Z,97.00
2022-10-17T16:55:18.783Z,95.39
2022-10-17T16:57:49.488Z,96.55
2022-10-17T17:00:18.349Z,96.28
2022-10-17T17:02:48.843Z,96.42
2022-10-17T17:05:17.060Z,95.65
2022-10-17T17:07:44.792Z,96.41
2022-10-17T17:10:12.694Z,96.04
2022-10-17T17:12:40.515Z,98.12
2022-10-17T17:15:10.094Z,96.77
2022-10-17T17:17:49.548Z,95.95
2022-10-17T17:20:18.362Z,98.27
2022-10-17T17:22:46.161Z,99.04
2022-10-17T17:25:14.238Z,98.59
2022-10-17T17:27:42.182Z,97.29
2022-10-17T17:30:12.716Z,96.51
2022-10-17T17:32:40.741Z,97.41
2022-10-17T17:35:09.480Z,96.68
2022-10-17T17:37:37.215Z,98.18
2022-10-17T17:40:06.533Z,97.60
2022-10-17T17:42:34.307Z,96.40
2022-10-17T17:45:02.084Z,97.42
2022-10-17T17:47:31.533Z,96.35
2022-10-17T17:49:59.462Z,96.33
2022-10-17T17:52:27.498Z,96.88
2022-10-17T17:54:55.393Z,98.26
2022-10-17T17:57:23.320Z,97.41
2022-10-17T17:59:52.290Z,97.61
2022-10-17T18:02:20.074Z,97.08
2022-10-17T18:04:49.732Z,96.57
2022-10-17T18:07:17.554Z,97.61
2022-10-17T18:09:45.332Z,96.65
2022-10-17T18:12:13.076Z,96.72
2022-10-17T18:14:40.853Z,97.20
2022-10-17T18:17:08.696Z,96.57
2022-10-17T18:19:36.600Z,96.90
2022-10-17T18:22:05.775Z,97.64
2022-10-17T18:24:33.767Z,98.29
2022-10-17T18:27:01.602Z,97.62
2022-10-17T18:29:29.480Z,98.21
2022-10-17T18:31:57.239Z,98.35
2022-10-17T18:34:24.971Z,96.89
2022-10-17T18:36:53.739Z,97.87
2022-10-17T18:39:23.135Z,96.80
2022-10-17T18:41:50.850Z,96.12
2022-10-17T18:44:18.530Z,98.33
2022-10-17T18:46:46.919Z,96.70
2022-10-17T18:49:18.841Z,98.71
2022-10-17T18:51:47.481Z,98.13
2022-10-17T18:54:20.446Z,99.30
2022-10-17T18:56:51.055Z,99.80
2022-10-17T18:59:19.294Z,98.54
2022-10-17T19:01:47.714Z,98.41
2022-10-17T19:04:15.740Z,97.76
2022-10-17T19:06:44.097Z,96.51
2022-10-17T19:09:13.492Z,96.16
2022-10-17T19:11:42.227Z,94.86
2022-10-17T19:14:13.845Z,94.83
2022-10-17T19:16:43.124Z,93.61
2022-10-17T19:19:14.244Z,94.35
2022-10-17T19:21:42.653Z,95.18
2022-10-17T19:24:14.685Z,94.75
2022-10-17T19:26:43.730Z,94.99
2022-10-17T19:29:14.978Z,93.53
2022-10-17T19:31:43.589Z,93.38
2022-10-17T19:34:12.096Z,92.52
2022-10-17T19:36:40.720Z,91.21
2022-10-17T19:39:14.114Z,91.23
2022-10-17T19:41:41.884Z,92.04
2022-10-17T19:44:10.060Z,91.58
2022-10-17T19:46:39.559Z,91.74
2022-10-17T19:49:07.853Z,91.70
2022-10-17T19:51:35.619Z,92.14
2022-10-17T19:54:03.415Z,92.17
2022-10-17T19:56:37.576Z,92.54
2022-10-17T19:59:06.347Z,92.68
2022-10-17T20:01:36.229Z,92.38
2022-10-17T20:04:06.322Z,91.98
2022-10-17T20:06:34.693Z,91.82
2022-10-17T20:09:02.580Z,91.87
2022-10-17T20:11:30.808Z,91.82
2022-10-17T20:13:58.715Z,92.75
2022-10-17T20:16:28.871Z,93.31
2022-10-17T20:18:58.392Z,93.87
2022-10-17T20:21:31.561Z,93.81
2022-10-17T20:24:01.080Z,93.43
2022-10-17T20:26:38.596Z,93.06
2022-10-17T20:29:13.296Z,93.56
2022-10-17T20:31:42.614Z,93.99
2022-10-17T20:34:12.981Z,93.46
2022-10-17T20:36:42.677Z,94.56
2022-10-17T20:39:12.399Z,94.19
2022-10-17T20:41:40.152Z,94.15
2022-10-17T20:44:08.240Z,93.68
2022-10-17T20:46:37.818Z,92.83
2022-10-17T20:49:08.749Z,92.20
2022-10-17T20:51:37.116Z,94.10
2022-10-17T20:54:06.331Z,92.78
2022-10-17T20:56:35.461Z,92.40
2022-10-17T20:59:05.626Z,93.08
2022-10-17T21:01:35.245Z,92.24
2022-10-17T21:04:26.958Z,92.69
2022-10-17T21:06:52.179Z,93.51
2022-10-17T21:09:22.130Z,93.86
2022-10-17T21:11:54.289Z,91.81
2022-10-17T21:14:23.347Z,91.80
2022-10-17T21:16:52.198Z,91.86
2022-10-17T21:19:21.683Z,94.22
2022-10-17T21:21:49.417Z,93.88
2022-10-17T21:24:20.670Z,93.33
2022-10-17T21:26:55.614Z,92.07
2022-10-17T21:29:24.582Z,93.57
2022-10-17T21:31:52.682Z,91.87
2022-10-17T21:34:22.063Z,91.82
2022-10-17T21:36:50.030Z,93.59
2022-10-17T21:39:18.379Z,92.22
2022-10-17T21:41:46.460Z,91.94
2022-10-17T21:44:17.651Z,92.77
2022-10-17T21:46:45.824Z,91.69
2022-10-17T21:49:15.413Z,91.93
2022-10-17T21:51:44.627Z,91.75
2022-10-17T21:54:12.873Z,92.89
2022-10-17T21:56:41.014Z,91.70
2022-10-17T21:59:09.145Z,92.30
2022-10-17T22:01:40.336Z,91.33
2022-10-17T22:04:11.435Z,91.96
2022-10-17T22:06:41.296Z,91.60
2022-10-17T22:09:11.223Z,91.30
2022-10-17T22:11:39.500Z,91.93
2022-10-17T22:14:08.952Z,90.74
2022-10-17T22:16:40.137Z,90.79
2022-10-17T22:19:09.673Z,91.59
2022-10-17T22:21:38.144Z,90.61
2022-10-17T22:24:08.152Z,91.71
2022-10-17T22:26:37.507Z,92.72
2022-10-17T22:29:06.003Z,91.35
2022-10-17T22:31:34.233Z,91.32
2022-10-17T22:34:05.254Z,92.54
2022-10-17T22:36:33.926Z,93.44
2022-10-17T22:39:01.673Z,91.36
2022-10-17T22:41:29.573Z,91.04
2022-10-17T22:43:57.313Z,91.64
2022-10-17T22:46:25.289Z,91.92
2022-10-17T22:48:52.987Z,91.70
2022-10-17T22:53:54.805Z,91.40
2022-10-17T22:56:23.600Z,91.27
2022-10-17T22:58:52.052Z,91.24
2022-10-17T23:01:22.376Z,90.90
2022-10-17T23:03:50.857Z,91.56
2022-10-17T23:06:18.847Z,92.08
2022-10-17T23:08:48.267Z,92.09
2022-10-17T23:11:16.136Z,91.94
2022-10-17T23:13:44.124Z,92.94
2022-10-17T23:16:11.902Z,91.62
2022-10-17T23:18:40.349Z,92.17
2022-10-17T23:21:08.924Z,91.74
2022-10-17T23:23:37.448Z,90.99
2022-10-17T23:26:08.627Z,91.46
2022-10-17T23:28:36.448Z,92.76
2022-10-17T23:31:12.375Z,92.22
2022-10-17T23:33:41.361Z,91.16
2022-10-17T23:36:10.262Z,91.80
2022-10-17T23:38:38.052Z,92.31
2022-10-17T23:41:07.656Z,92.88
2022-10-17T23:43:35.944Z,93.47
2022-10-17T23:46:04.433Z,92.66
2022-10-17T23:48:32.190Z,92.76
2022-10-17T23:51:00.022Z,92.62
2022-10-17T23:53:28.039Z,92.14
2022-10-17T23:55:55.740Z,93.41
2022-10-17T23:58:24.805Z,92.75
